Flatwoods, LA (71427)

10:09 PM CDT on April 18, 2015 (GMT -0500)
Alexandria International | | Change Station
CLOSE
Current Station
Airport
Location: Alexandria,
Elevation: 89 ft
Nearby Weather Stations
Active Advisory: Flood Warning

Elev 89 ft 31.33 °N, 92.56 °W | Updated 16 minutes ago

Partly Cloudy
Partly Cloudy
69 °F
Feels Like 69 °F
N
4
Wind Variable Wind from SE

Today
High -- | Low -- °F
--% Chance of Precip.
Yesterday
High -- | Low -- °F
Precip. -- in
6:40 AM 7:42 PM
New Moon, 0% visible
Pressure 29.77 in
Visibility 7.0 miles
Clouds Few 12000 ft
Dew Point 68 °F
Humidity 96%
Rainfall 0.01 in
Snow Depth Not available.
UV 0 out of 12
Pollen 1.10 out of 12
Air Quality Not available.
Flu Activity Local Activity
METAR KAEX 190253Z 13003KT 7SM FEW120 21/20 A2976 RMK AO2 SLP079 T02060200 56010 $

More Conditions Fewer Conditions

Pressure 29.77 in
Visibility 7.0 miles
Clouds Few 12000 ft
Dew Point 68 °F
Humidity 96%
Rainfall 0.01 in
Snow Depth Not available.
UV 0 out of 12
Pollen 1.10 out of 12
Air Quality Not available.
Flu Activity Local Activity
METAR KAEX 190253Z 13003KT 7SM FEW120 21/20 A2976 RMK AO2 SLP079 T02060200 56010 $

More Conditions Fewer Conditions

10-Day Weather Forecast

Almanac

Astronomy

Apr. 18, 2015 Rise Set
Actual Time
Civil Twilight
Nautical Twilight
Astronomical Twilight
Moon
Length of Visible Light
Length of Day
Tomorrow will be .
, % of the Moon is Illuminated

Today's Extremes

State Highs State Lows

Community

WunderPhotos

Upload Photos

1,814,657 photos uploaded!

WunderBlogs® & News

Nearby

Air Quality

  Air Quality AQ Index Pollutant
Not available.

Snow Depth

Station Depth Elevation

Earthquake Activity

City Distance Mag. Time & Date
Minimum magnitude displayed is 2.5.

Coastal Water Temperatures

Place Temperature

Stations

Nearby Weather Stations

Station Location Temp. Windchill Dew Point Humidity Wind Precip. Elev Updated Type
                   
Flood Warning
Statement as of 8:41 PM CDT on April 18, 2015

The Flood Warning continues for
the Calcasieu River near Glenmora.
* Until further notice... or until the warning is cancelled.
* At 7:45 PM Saturday the stage was 12.9 feet.
* Minor flooding is occurring and minor flooding is forecast.
* Flood stage is 12.0 feet.
* Forecast... the river will continue rising to near 14.0 feet by
early Tuesday morning then begin falling.
* Impact... at stages near 14.0 feet... some roads upstream from
Glenmora, including strothers crossing Road near the community of
Calcasieu and Price Crossing Road near Hineston have two to three
feet of water over the Road and are subject to being closed.
Flooding of forested areas near the river will also occur.


Lat... Lon 3113 9279 3090 9269 3090 9262 3105 9265 3115 9275